Airfield :
LOGIN :

Register | Disclaimer

   EN    FR    IT 

 










Legend :    VFR   Marginal VFR   IFR   Intensive IFR   Very Intensive IFR
Visi :
Ceiling :
>= 8 km
>= 3000ft
5 to 8 km
1000 to 3000 ft
1500m to 5 km
500 to 1000 ft
800 to 1500m
200 to 500 ft
< 800m
< 200 ft
Symbols :   Thunderstorms  Fog  Heavy snow  Heavy precipitations  Wind > 20 kt
SIGMETs :     Misc.  Thunderstorms  Icing  Turbulence  Mountain Waves  Volcanic Ashes







- Airport Elevation : 220 ft
- IATA code : CWL
- Download approach charts


EGFF - Cardiff Rhoose

CURRENT METAR :
  • 180520Z AUTO 22007KT 9999 SCT026 SCT033 08/06 Q1012

EXPIRED METARs :
  • 180450Z AUTO 21007KT 9999 BKN020 08/06 Q1012
  • 180420Z AUTO 21006KT 9999 SCT023 BKN028 BKN034 09/06 Q1013
  • 180350Z AUTO 22008KT 9999 SCT023 BKN036 BKN048 09/06 Q1013
  • 180320Z AUTO 22006KT 9999 BKN022 OVC034 09/06 Q1013
  • 180250Z AUTO 21006KT 9999 BKN022 09/06 Q1013

TAF TAF EGFF
Valid from the 18 at 06:00 until the 19 at 06:00 UTC


180457Z 1806/1906 20008KT 9999 SCT035
BECMG 1810/1813 26012KT
TEMPO 1810/1821 26016G26KT 6000 SHRA
PROB30
TEMPO 1810/1815 4000 +SHRA
ATIS : +44 1446 729 319
No reported NOTAMs for that airfield.



MET'MAP, your aeronautical weather chart ! - Copyright ORBIFLY December 2007 - Disclaimer

ORBIFLY MET'MAP TEAM :

Programming & Development : Alexandra Zaïnal
Concept & Development : Baudouin d'Aumeries
Co-Development & Prog : Marc-Olivier Méhu
Technical & hardware support : Manuel Goepfert

Contact : metmap@orbifly.com




SOURCES & CREDITS :

   NOAA